Time;durP1;ratioP1;P1;durP2;ratioP2;P2;SDS_P1;SDS_P2;PMS_P1;PMS_P2;Temp;Humidity;BMP_temperature;BMP_pressure;BME280_temperature;BME280_humidity;BME280_pressure;Samples;Min_cycle;Max_cycle;Signal;HPM_P1;HPM_P2
2023/07/30 00:02:19;;;;;;;0.40;0.20;;;23.30;78.30;;;;;;6383189;27;20504;-54
2023/07/30 00:05:21;;;;;;;0.20;0.20;;;24.00;78.50;;;;;;6385769;27;20030;-56
2023/07/30 00:08:23;;;;;;;0.30;0.22;;;24.10;78.60;;;;;;6389961;27;20039;-54
2023/07/30 00:11:24;;;;;;;0.20;0.20;;;24.10;78.50;;;;;;6391511;27;21089;-53
2023/07/30 00:14:26;;;;;;;0.30;0.28;;;24.10;78.40;;;;;;6390743;27;20094;-55
2023/07/30 00:17:29;;;;;;;0.20;0.20;;;24.00;78.50;;;;;;6392444;27;20046;-53
2023/07/30 00:20:31;;;;;;;0.30;0.20;;;24.00;77.90;;;;;;6389053;27;20039;-53
2023/07/30 00:23:32;;;;;;;0.20;0.20;;;24.00;77.70;;;;;;6387900;27;20389;-53
2023/07/30 00:26:34;;;;;;;0.20;0.20;;;23.90;78.20;;;;;;6385747;27;20525;-52
2023/07/30 00:29:36;;;;;;;0.20;0.20;;;24.10;77.60;;;;;;6389007;27;20084;-53
2023/07/30 00:32:43;;;;;;;0.43;0.30;;;23.90;77.80;;;;;;6389901;27;20114;-52
2023/07/30 00:35:47;;;;;;;0.40;0.22;;;23.90;77.50;;;;;;6388990;27;20722;-52
2023/07/30 00:38:49;;;;;;;0.52;0.32;;;23.90;77.60;;;;;;6391826;27;20038;-52
2023/07/30 00:41:53;;;;;;;0.22;0.22;;;23.90;77.00;;;;;;6390198;27;20027;-53
2023/07/30 00:44:54;;;;;;;0.45;0.30;;;24.00;73.80;;;;;;6390543;27;20035;-55
2023/07/30 00:47:59;;;;;;;0.55;0.30;;;23.60;77.10;;;;;;6388994;27;20027;-55
2023/07/30 00:51:01;;;;;;;0.20;0.20;;;23.90;76.50;;;;;;6386823;27;20050;-54
2023/07/30 00:54:02;;;;;;;0.35;0.10;;;23.80;76.30;;;;;;6385518;27;20035;-54
2023/07/30 00:57:04;;;;;;;0.40;0.20;;;23.80;76.40;;;;;;6387662;27;20108;-53
2023/07/30 01:00:09;;;;;;;0.20;0.10;;;23.80;76.50;;;;;;6390433;27;20039;-53
2023/07/30 01:03:10;;;;;;;0.20;0.20;;;23.50;76.20;;;;;;6391400;27;20494;-52
2023/07/30 01:06:15;;;;;;;0.10;0.10;;;24.50;77.20;;;;;;6382443;27;20027;-55
2023/07/30 01:09:16;;;;;;;0.80;0.35;;;23.90;77.00;;;;;;6385717;27;20653;-58
2023/07/30 01:12:18;;;;;;;0.40;0.30;;;23.90;76.90;;;;;;6391890;27;20081;-57
2023/07/30 01:15:21;;;;;;;0.73;0.20;;;23.70;76.50;;;;;;6391535;27;20062;-58
2023/07/30 01:18:22;;;;;;;0.10;0.10;;;23.80;76.60;;;;;;6395229;27;20034;-58
2023/07/30 01:21:25;;;;;;;0.20;0.20;;;23.70;76.70;;;;;;6393251;27;20043;-58
2023/07/30 01:24:26;;;;;;;0.35;0.25;;;23.80;76.50;;;;;;6348133;22;20414;-47
2023/07/30 01:27:30;;;;;;;0.30;0.20;;;23.40;76.20;;;;;;6295290;28;20036;-44
2023/07/30 01:30:39;;;;;;;0.20;0.17;;;23.70;76.70;;;;;;6294255;28;20028;-49
2023/07/30 01:33:43;;;;;;;0.20;0.20;;;23.80;76.80;;;;;;6292828;28;20042;-42
2023/07/30 01:36:46;;;;;;;0.20;0.20;;;23.30;76.10;;;;;;6293852;28;20085;-47
2023/07/30 01:39:49;;;;;;;0.25;0.25;;;23.70;76.30;;;;;;6293517;28;20036;-48
2023/07/30 01:42:53;;;;;;;0.45;0.20;;;23.80;76.40;;;;;;6291448;28;20040;-48
2023/07/30 01:45:55;;;;;;;0.50;0.20;;;23.50;76.80;;;;;;6291190;28;20070;-45
2023/07/30 01:49:00;;;;;;;0.43;0.30;;;23.50;76.30;;;;;;6291494;28;20123;-42
2023/07/30 01:52:02;;;;;;;0.30;0.30;;;23.70;76.60;;;;;;6290676;28;20132;-44
2023/07/30 01:55:04;;;;;;;0.60;0.43;;;23.40;76.30;;;;;;6291222;28;20120;-45
2023/07/30 01:58:06;;;;;;;0.47;0.30;;;23.60;76.40;;;;;;6292302;28;20040;-45
2023/07/30 02:01:07;;;;;;;0.30;0.20;;;23.60;76.60;;;;;;6292078;28;20028;-45
2023/07/30 02:04:10;;;;;;;0.30;0.22;;;23.60;77.30;;;;;;6293322;28;20067;-43
2023/07/30 02:07:12;;;;;;;0.45;0.40;;;23.70;76.90;;;;;;6291708;28;20036;-44
2023/07/30 02:10:14;;;;;;;0.50;0.30;;;23.60;76.80;;;;;;6292322;28;20512;-43
2023/07/30 02:13:15;;;;;;;0.43;0.32;;;23.60;76.90;;;;;;6291800;28;20040;-47
2023/07/30 02:16:18;;;;;;;0.38;0.38;;;23.60;76.90;;;;;;6293194;28;20036;-48
2023/07/30 02:19:20;;;;;;;0.75;0.35;;;23.60;77.20;;;;;;6296166;28;20044;-42
2023/07/30 02:22:22;;;;;;;0.70;0.25;;;23.50;77.20;;;;;;6297222;28;20406;-46
2023/07/30 02:25:25;;;;;;;0.20;0.20;;;23.50;76.10;;;;;;6297523;28;20039;-45
2023/07/30 02:28:27;;;;;;;0.20;0.20;;;23.60;77.40;;;;;;6294715;28;20493;-43
2023/07/30 02:31:29;;;;;;;1.13;0.40;;;23.50;77.20;;;;;;6296655;28;20519;-45
2023/07/30 02:34:33;;;;;;;0.30;0.30;;;23.60;77.10;;;;;;6296695;28;20113;-45
2023/07/30 02:37:37;;;;;;;0.45;0.20;;;23.60;77.00;;;;;;6297274;28;20217;-46
2023/07/30 02:40:42;;;;;;;0.30;0.30;;;23.50;77.00;;;;;;6295818;28;20075;-47
2023/07/30 02:43:46;;;;;;;0.80;0.32;;;23.50;77.00;;;;;;6297240;28;20094;-45
2023/07/30 02:46:47;;;;;;;0.30;0.20;;;23.50;76.90;;;;;;6296359;28;20062;-44
2023/07/30 02:49:49;;;;;;;0.80;0.38;;;23.40;76.90;;;;;;6295320;28;20032;-45
2023/07/30 02:52:51;;;;;;;0.47;0.30;;;23.50;77.00;;;;;;6296196;28;20058;-44
2023/07/30 02:55:53;;;;;;;0.60;0.38;;;23.20;76.90;;;;;;6293665;28;20029;-48
2023/07/30 02:58:55;;;;;;;0.60;0.40;;;23.30;77.60;;;;;;6296484;28;20163;-43
2023/07/30 03:01:58;;;;;;;0.52;0.35;;;23.40;77.20;;;;;;6293767;28;20051;-45
2023/07/30 03:05:03;;;;;;;0.60;0.30;;;23.40;77.60;;;;;;6296093;28;20131;-45
2023/07/30 03:08:05;;;;;;;0.20;0.20;;;23.50;77.20;;;;;;6295298;28;20434;-45
2023/07/30 03:11:06;;;;;;;0.30;0.22;;;23.50;77.50;;;;;;6294326;28;20134;-45
2023/07/30 03:14:07;;;;;;;0.60;0.30;;;23.40;77.20;;;;;;6293770;28;20036;-43
2023/07/30 03:17:09;;;;;;;0.52;0.30;;;23.50;77.40;;;;;;6295569;28;20035;-43
2023/07/30 03:20:11;;;;;;;0.57;0.30;;;23.40;77.40;;;;;;6294532;28;20502;-45
2023/07/30 03:23:14;;;;;;;0.65;0.30;;;23.50;78.40;;;;;;6294919;28;20401;-48
2023/07/30 03:26:15;;;;;;;0.65;0.30;;;23.10;78.10;;;;;;6296709;28;20379;-43
2023/07/30 03:29:17;;;;;;;0.45;0.30;;;23.60;77.70;;;;;;6295448;28;20164;-47
2023/07/30 03:32:18;;;;;;;0.43;0.22;;;23.40;77.30;;;;;;6295792;28;20043;-44
2023/07/30 03:35:19;;;;;;;0.50;0.30;;;23.20;77.20;;;;;;6294272;28;20040;-44
2023/07/30 03:38:28;;;;;;;0.45;0.30;;;23.40;77.20;;;;;;6294782;28;20119;-46
2023/07/30 03:41:35;;;;;;;0.50;0.30;;;23.50;77.30;;;;;;6295354;28;20085;-43
2023/07/30 03:44:39;;;;;;;0.38;0.20;;;23.30;76.70;;;;;;6295926;28;20110;-47
2023/07/30 03:47:40;;;;;;;0.80;0.40;;;23.30;76.60;;;;;;6296640;28;20035;-43
2023/07/30 03:50:42;;;;;;;0.63;0.30;;;23.00;76.10;;;;;;6295852;28;20036;-43
2023/07/30 03:53:46;;;;;;;0.63;0.30;;;23.30;76.00;;;;;;6296585;28;20431;-45
2023/07/30 03:56:47;;;;;;;0.60;0.47;;;23.10;91.30;;;;;;6295632;28;20093;-43
2023/07/30 03:59:51;;;;;;;0.80;0.40;;;23.40;75.60;;;;;;6294514;28;20114;-46
2023/07/30 04:02:52;;;;;;;0.68;0.40;;;23.40;75.40;;;;;;6294978;28;20039;-43
2023/07/30 04:05:56;;;;;;;0.52;0.40;;;23.30;75.40;;;;;;6294426;28;20048;-45
2023/07/30 04:08:58;;;;;;;0.55;0.35;;;23.20;74.80;;;;;;6294484;28;20418;-46
2023/07/30 04:12:00;;;;;;;0.22;0.20;;;22.90;74.60;;;;;;6294483;28;20048;-47
2023/07/30 04:15:01;;;;;;;0.45;0.30;;;23.30;74.70;;;;;;6293053;28;20430;-45
2023/07/30 04:18:03;;;;;;;0.50;0.30;;;23.30;74.30;;;;;;6294236;28;20546;-43
2023/07/30 04:21:04;;;;;;;0.38;0.30;;;22.90;73.60;;;;;;6294312;28;20064;-44
2023/07/30 04:24:09;;;;;;;0.68;0.30;;;23.40;74.60;;;;;;6295208;28;20454;-44
2023/07/30 04:27:11;;;;;;;0.63;0.20;;;23.30;74.30;;;;;;6294044;28;20036;-45
2023/07/30 04:30:12;;;;;;;0.85;0.30;;;23.30;74.30;;;;;;6293608;28;20399;-45
2023/07/30 04:33:15;;;;;;;0.70;0.30;;;23.30;74.20;;;;;;6294276;28;20553;-45
2023/07/30 04:36:18;;;;;;;0.50;0.45;;;23.40;73.90;;;;;;6295263;28;20070;-45
2023/07/30 04:39:23;;;;;;;0.90;0.30;;;23.30;73.70;;;;;;6295386;28;20111;-43
2023/07/30 04:42:24;;;;;;;0.30;0.20;;;23.30;73.60;;;;;;6291524;28;20032;-45
2023/07/30 04:45:27;;;;;;;0.50;0.40;;;23.30;73.10;;;;;;6293042;28;20032;-43
2023/07/30 04:48:29;;;;;;;0.30;0.30;;;23.00;73.60;;;;;;6293960;28;20251;-47
2023/07/30 04:51:32;;;;;;;0.73;0.40;;;23.30;73.30;;;;;;6292433;28;20036;-45
2023/07/30 04:54:36;;;;;;;0.80;0.30;;;23.10;73.20;;;;;;6292525;28;20077;-45
2023/07/30 04:57:37;;;;;;;0.52;0.38;;;23.20;72.90;;;;;;6293209;28;20169;-42
2023/07/30 05:00:39;;;;;;;1.10;0.30;;;23.20;73.00;;;;;;6293145;28;20066;-43
2023/07/30 05:03:40;;;;;;;;;;;23.30;72.80;;;;;;6280946;28;20227;-44
2023/07/30 05:06:42;;;;;;;0.40;0.20;;;23.50;73.30;;;;;;6273825;28;20413;-43
2023/07/30 05:09:44;;;;;;;0.75;0.35;;;22.60;72.10;;;;;;6281132;28;20048;-42
2023/07/30 05:12:45;;;;;;;0.70;0.30;;;23.10;72.20;;;;;;6282902;28;20570;-47
2023/07/30 05:15:47;;;;;;;0.73;0.38;;;23.10;72.30;;;;;;6277205;28;20040;-42
2023/07/30 05:18:50;;;;;;;0.32;0.30;;;22.60;71.90;;;;;;6264521;28;20032;-45
2023/07/30 05:21:51;;;;;;;0.50;0.30;;;23.20;72.60;;;;;;6281022;28;20478;-47
2023/07/30 05:24:54;;;;;;;0.95;0.30;;;23.10;72.70;;;;;;6279801;28;20028;-47
2023/07/30 05:27:56;;;;;;;0.40;0.30;;;23.20;73.00;;;;;;6284010;28;21140;-47
2023/07/30 05:30:58;;;;;;;0.68;0.30;;;23.20;72.40;;;;;;6281092;28;20514;-46
2023/07/30 05:33:59;;;;;;;;;;;22.80;72.50;;;;;;6282024;28;20040;-44
2023/07/30 05:37:01;;;;;;;0.38;0.32;;;23.10;73.20;;;;;;6227752;28;20370;-44
2023/07/30 05:40:04;;;;;;;1.83;0.60;;;22.80;71.90;;;;;;6260693;28;20450;-44
2023/07/30 05:43:06;;;;;;;0.35;0.30;;;23.30;72.70;;;;;;6282615;28;20047;-46
2023/07/30 05:46:08;;;;;;;;;;;23.30;72.10;;;;;;6279158;28;20028;-46
2023/07/30 05:49:14;;;;;;;0.73;0.40;;;23.30;73.00;;;;;;6265831;28;19968;-42
2023/07/30 05:52:17;;;;;;;0.40;0.30;;;23.30;72.30;;;;;;6281195;28;20040;-48
2023/07/30 05:55:19;;;;;;;0.20;0.20;;;23.20;72.40;;;;;;6279530;28;20051;-43
2023/07/30 05:58:21;;;;;;;0.30;0.30;;;23.10;72.40;;;;;;6283412;28;20032;-47
2023/07/30 06:01:22;;;;;;;0.43;0.30;;;23.20;72.10;;;;;;6278435;28;20062;-43
2023/07/30 06:04:25;;;;;;;0.70;0.30;;;23.10;72.00;;;;;;6255144;28;20611;-43
2023/07/30 06:07:27;;;;;;;0.38;0.20;;;23.20;72.80;;;;;;6259191;28;20258;-46
2023/07/30 06:10:30;;;;;;;1.25;0.50;;;23.20;72.00;;;;;;6262266;28;20411;-44
2023/07/30 06:13:31;;;;;;;1.30;0.40;;;23.20;71.90;;;;;;6265551;28;20044;-44
2023/07/30 06:16:32;;;;;;;0.77;0.40;;;23.20;71.70;;;;;;6264916;28;20041;-44
2023/07/30 06:19:35;;;;;;;0.40;0.32;;;22.70;71.80;;;;;;6265312;28;20037;-44
2023/07/30 06:22:39;;;;;;;0.60;0.30;;;23.00;71.70;;;;;;6265240;28;20040;-43
2023/07/30 06:25:41;;;;;;;0.60;0.40;;;23.10;72.40;;;;;;6264526;28;20044;-45
2023/07/30 06:28:42;;;;;;;0.73;0.30;;;23.10;71.70;;;;;;6265232;28;20043;-46
2023/07/30 06:31:46;;;;;;;0.90;0.60;;;23.20;72.10;;;;;;6264875;28;20045;-45
2023/07/30 06:34:48;;;;;;;0.70;0.50;;;23.20;71.80;;;;;;6263914;28;20039;-45
2023/07/30 06:37:52;;;;;;;0.40;0.30;;;23.20;72.10;;;;;;6263209;28;20094;-42
2023/07/30 06:40:57;;;;;;;0.55;0.30;;;23.00;72.40;;;;;;6264263;28;20564;-47
2023/07/30 06:43:59;;;;;;;0.63;0.30;;;23.00;68.40;;;;;;6264643;28;20071;-43
2023/07/30 06:47:01;;;;;;;0.82;0.45;;;22.10;71.20;;;;;;6264478;28;20041;-45
2023/07/30 06:50:03;;;;;;;0.63;0.30;;;23.10;71.90;;;;;;6263082;28;20232;-41
2023/07/30 06:53:04;;;;;;;0.60;0.30;;;23.20;71.20;;;;;;6261677;28;20360;-43
2023/07/30 06:56:06;;;;;;;0.45;0.35;;;23.10;71.60;;;;;;6261681;28;20094;-42
2023/07/30 06:59:08;;;;;;;0.60;0.30;;;23.20;71.60;;;;;;6263831;28;20062;-48
2023/07/30 07:02:11;;;;;;;1.00;0.40;;;23.20;72.60;;;;;;6264260;28;20506;-44
2023/07/30 07:05:13;;;;;;;0.52;0.25;;;23.10;72.20;;;;;;6266664;28;20107;-42
2023/07/30 07:08:14;;;;;;;0.40;0.40;;;23.20;72.10;;;;;;6267766;28;20045;-45
2023/07/30 07:11:16;;;;;;;0.75;0.40;;;23.20;72.50;;;;;;6268696;28;20037;-42
2023/07/30 07:14:18;;;;;;;0.43;0.40;;;23.30;72.60;;;;;;6267964;28;20044;-43
2023/07/30 07:17:19;;;;;;;;;;;23.20;72.20;;;;;;6267663;28;20634;-44
2023/07/30 07:20:20;;;;;;;0.50;0.40;;;23.50;72.70;;;;;;6268553;28;20390;-44
2023/07/30 07:23:22;;;;;;;0.70;0.32;;;22.90;72.40;;;;;;6266275;28;20671;-43
2023/07/30 07:26:34;;;;;;;0.25;0.20;;;23.20;72.10;;;;;;6267705;28;20098;-47
2023/07/30 07:29:36;;;;;;;0.65;0.40;;;23.20;71.80;;;;;;6268314;28;20074;-44
2023/07/30 07:32:38;;;;;;;0.30;0.30;;;22.80;71.90;;;;;;6267688;28;20431;-49
2023/07/30 07:35:40;;;;;;;0.30;0.30;;;22.80;71.90;;;;;;6266977;28;20116;-48
2023/07/30 07:38:42;;;;;;;0.57;0.45;;;23.20;72.20;;;;;;6249983;28;20040;-44
2023/07/30 07:41:44;;;;;;;0.40;0.40;;;23.20;72.00;;;;;;6265652;28;20044;-48
2023/07/30 07:44:47;;;;;;;0.70;0.50;;;23.00;72.60;;;;;;6215971;28;20044;-42
2023/07/30 07:47:48;;;;;;;0.80;0.50;;;23.20;71.70;;;;;;6268240;28;20037;-46
2023/07/30 07:50:50;;;;;;;0.60;0.30;;;23.20;72.90;;;;;;6269431;28;20045;-45
2023/07/30 07:53:52;;;;;;;0.70;0.32;;;23.30;72.50;;;;;;6267323;28;20089;-44
2023/07/30 07:56:54;;;;;;;0.70;0.60;;;23.30;72.30;;;;;;6268057;28;20044;-46
2023/07/30 07:59:57;;;;;;;0.60;0.40;;;23.00;89.70;;;;;;6267960;28;20040;-44
2023/07/30 08:02:59;;;;;;;0.73;0.40;;;23.00;72.40;;;;;;6268979;28;20041;-45
2023/07/30 08:06:01;;;;;;;0.73;0.50;;;23.20;71.80;;;;;;6268291;28;20040;-45
2023/07/30 08:09:02;;;;;;;0.80;0.50;;;23.30;72.10;;;;;;6267421;28;20039;-48
2023/07/30 08:12:06;;;;;;;1.02;0.57;;;23.40;71.30;;;;;;6267953;28;20032;-45
2023/07/30 08:15:07;;;;;;;0.63;0.50;;;23.40;71.40;;;;;;6267382;28;20037;-45
2023/07/30 08:18:09;;;;;;;1.20;0.70;;;23.60;71.60;;;;;;6266573;28;20040;-44
2023/07/30 08:21:11;;;;;;;1.17;0.60;;;23.40;72.10;;;;;;6267000;28;20044;-47
2023/07/30 08:24:13;;;;;;;1.25;0.65;;;23.30;71.20;;;;;;6267464;28;20059;-45
2023/07/30 08:27:15;;;;;;;0.73;0.60;;;23.40;72.00;;;;;;6267653;28;20041;-47
2023/07/30 08:30:16;;;;;;;1.08;0.60;;;23.40;71.80;;;;;;6265026;28;20253;-45
2023/07/30 08:33:18;;;;;;;0.68;0.47;;;23.40;71.40;;;;;;6266698;28;20058;-42
2023/07/30 08:36:19;;;;;;;;;;;23.10;70.80;;;;;;6268663;28;20047;-44
2023/07/30 08:39:24;;;;;;;1.15;0.60;;;23.70;72.00;;;;;;6267791;28;19920;-43
2023/07/30 08:42:27;;;;;;;1.13;0.70;;;23.40;71.00;;;;;;6267243;28;20289;-45
2023/07/30 08:45:29;;;;;;;1.17;0.60;;;23.40;70.90;;;;;;6266642;28;20032;-43
2023/07/30 08:48:33;;;;;;;1.05;0.70;;;23.00;70.40;;;;;;6266499;28;20032;-45
2023/07/30 08:51:37;;;;;;;0.80;0.57;;;23.40;68.70;;;;;;6267331;28;20036;-46
2023/07/30 08:54:43;;;;;;;1.48;0.60;;;23.20;70.30;;;;;;6266755;28;20048;-46
2023/07/30 08:57:46;;;;;;;1.10;0.63;;;22.90;69.20;;;;;;6267447;28;20048;-44
2023/07/30 09:00:50;;;;;;;0.70;0.60;;;23.40;70.70;;;;;;6266780;28;20028;-46
2023/07/30 09:03:54;;;;;;;1.00;0.80;;;23.40;70.70;;;;;;6267702;28;20056;-43
2023/07/30 09:06:56;;;;;;;1.02;0.70;;;23.50;71.30;;;;;;6265965;28;20041;-48
2023/07/30 09:09:58;;;;;;;0.70;0.52;;;23.40;70.90;;;;;;6267907;28;20420;-47
2023/07/30 09:13:02;;;;;;;1.17;0.60;;;23.30;70.50;;;;;;6266697;28;20039;-44
2023/07/30 09:16:09;;;;;;;1.13;0.70;;;23.50;70.60;;;;;;6265900;28;20565;-47
2023/07/30 09:19:17;;;;;;;1.05;0.75;;;23.30;70.90;;;;;;6266569;28;20033;-44
2023/07/30 09:22:26;;;;;;;1.45;0.73;;;23.60;70.90;;;;;;6249319;28;20037;-44
2023/07/30 09:25:27;;;;;;;1.50;0.70;;;23.20;70.50;;;;;;6266411;28;20370;-44
2023/07/30 09:28:33;;;;;;;0.90;0.63;;;23.10;70.40;;;;;;6266552;28;20033;-44
2023/07/30 09:31:47;;;;;;;0.70;0.50;;;23.50;70.40;;;;;;6247647;28;20044;-45
2023/07/30 09:34:49;;;;;;;2.35;0.80;;;23.50;70.40;;;;;;6248783;28;20056;-44
2023/07/30 09:37:57;;;;;;;1.10;0.93;;;23.40;70.60;;;;;;6265229;28;20086;-45
2023/07/30 09:41:01;;;;;;;1.10;0.75;;;23.40;70.20;;;;;;6233229;28;20039;-45
2023/07/30 09:44:04;;;;;;;1.30;0.75;;;23.40;70.20;;;;;;6267442;28;20230;-44
2023/07/30 09:47:09;;;;;;;0.98;0.70;;;23.70;70.40;;;;;;6265781;28;20433;-49
2023/07/30 09:50:11;;;;;;;1.60;0.80;;;23.60;70.20;;;;;;6266678;28;20036;-46
2023/07/30 09:53:19;;;;;;;1.08;0.65;;;23.50;70.10;;;;;;6265802;28;20037;-43
2023/07/30 09:56:21;;;;;;;1.23;0.85;;;23.60;70.60;;;;;;6266851;28;20040;-45
2023/07/30 09:59:26;;;;;;;0.88;0.57;;;23.40;70.10;;;;;;6266566;28;20036;-43
2023/07/30 10:02:31;;;;;;;1.15;0.98;;;23.50;70.20;;;;;;6266828;28;20078;-46
2023/07/30 10:05:36;;;;;;;1.15;0.70;;;23.60;69.70;;;;;;6266105;28;20037;-45
2023/07/30 10:08:39;;;;;;;0.85;0.70;;;23.20;69.60;;;;;;6265015;28;20037;-45
2023/07/30 10:11:45;;;;;;;1.23;0.68;;;23.70;70.30;;;;;;6248283;28;20087;-44
2023/07/30 10:14:47;;;;;;;1.40;0.77;;;23.80;66.50;;;;;;6266889;28;20044;-46
2023/07/30 10:17:49;;;;;;;1.15;0.70;;;23.40;70.70;;;;;;6266969;28;20052;-45
2023/07/30 10:20:54;;;;;;;0.80;0.55;;;23.30;69.40;;;;;;6265705;28;20438;-44
2023/07/30 10:24:00;;;;;;;1.65;0.70;;;23.30;69.20;;;;;;6267272;28;20623;-42
2023/07/30 10:27:09;;;;;;;1.15;0.75;;;23.60;69.80;;;;;;6248744;28;20064;-47
2023/07/30 10:30:13;;;;;;;0.85;0.68;;;23.40;69.60;;;;;;6248809;28;20567;-45
2023/07/30 10:33:15;;;;;;;1.77;1.08;;;23.30;69.50;;;;;;6264937;28;20041;-44
2023/07/30 10:36:18;;;;;;;1.35;0.80;;;23.30;69.10;;;;;;6265393;28;20032;-45
2023/07/30 10:39:21;;;;;;;1.20;0.90;;;23.40;68.90;;;;;;6270357;28;20032;-44
2023/07/30 10:42:34;;;;;;;1.10;0.88;;;23.40;69.30;;;;;;6270189;28;20434;-43
2023/07/30 10:45:36;;;;;;;1.17;0.80;;;23.40;68.70;;;;;;6253116;28;20515;-44
2023/07/30 10:48:39;;;;;;;1.00;0.70;;;23.60;68.70;;;;;;6270589;28;20028;-43
2023/07/30 10:51:40;;;;;;;1.00;0.80;;;23.80;68.70;;;;;;6270674;28;20215;-42
2023/07/30 10:54:43;;;;;;;1.63;0.98;;;23.80;68.80;;;;;;6268867;28;20445;-44
2023/07/30 10:57:46;;;;;;;1.08;0.68;;;23.60;68.90;;;;;;6270982;28;20037;-46
2023/07/30 11:00:49;;;;;;;1.23;0.70;;;23.80;68.60;;;;;;6269361;28;20572;-47
2023/07/30 11:03:51;;;;;;;1.85;1.25;;;24.00;68.50;;;;;;6270581;28;20846;-44
2023/07/30 11:06:53;;;;;;;1.17;0.80;;;24.00;68.50;;;;;;6270836;28;20043;-45
2023/07/30 11:10:00;;;;;;;0.82;0.55;;;23.90;68.00;;;;;;6270279;28;20033;-46
2023/07/30 11:13:02;;;;;;;1.10;0.77;;;23.40;67.70;;;;;;6236830;28;20049;-45
2023/07/30 11:16:06;;;;;;;1.00;0.80;;;24.00;68.10;;;;;;6270150;28;20043;-45
2023/07/30 11:19:08;;;;;;;1.27;0.82;;;24.00;68.60;;;;;;6270112;28;20605;-47
2023/07/30 11:22:11;;;;;;;1.33;1.10;;;23.90;68.00;;;;;;6270188;28;20114;-45
2023/07/30 11:25:17;;;;;;;1.63;1.02;;;23.90;68.50;;;;;;6271170;28;20223;-45
2023/07/30 11:28:29;;;;;;;1.45;1.00;;;24.10;67.50;;;;;;6269368;28;20036;-43
2023/07/30 11:31:34;;;;;;;0.70;0.70;;;24.10;68.20;;;;;;6268480;28;20066;-43
2023/07/30 11:34:38;;;;;;;1.35;0.73;;;23.90;67.70;;;;;;6270718;28;20131;-46
2023/07/30 11:37:42;;;;;;;0.88;0.80;;;24.10;67.70;;;;;;6268518;28;20036;-43
2023/07/30 11:40:44;;;;;;;1.00;0.65;;;24.00;67.50;;;;;;6268648;28;20108;-45
2023/07/30 11:43:46;;;;;;;1.60;0.75;;;24.10;67.60;;;;;;6269078;28;20045;-46
2023/07/30 11:46:54;;;;;;;1.13;0.70;;;24.10;67.30;;;;;;6269617;28;20056;-46
2023/07/30 11:49:56;;;;;;;1.05;0.73;;;23.80;67.10;;;;;;6250947;28;20459;-47
2023/07/30 11:52:58;;;;;;;1.13;0.60;;;24.70;67.40;;;;;;6270461;28;20445;-46
2023/07/30 11:55:59;;;;;;;1.02;0.85;;;24.10;67.20;;;;;;6268804;28;20098;-44
2023/07/30 11:59:03;;;;;;;0.70;0.50;;;24.00;67.00;;;;;;6270022;28;20056;-43
2023/07/30 12:02:05;;;;;;;1.35;0.98;;;24.00;66.80;;;;;;6251880;28;20325;-43
2023/07/30 12:05:12;;;;;;;1.00;0.70;;;23.90;66.40;;;;;;6268649;28;20094;-44
2023/07/30 12:08:17;;;;;;;1.13;0.80;;;24.00;66.70;;;;;;6268402;28;20068;-44
2023/07/30 12:11:21;;;;;;;1.00;0.90;;;24.20;66.70;;;;;;6268001;28;20041;-44
2023/07/30 12:14:30;;;;;;;0.90;0.80;;;24.30;67.30;;;;;;6252371;28;20415;-45
2023/07/30 12:17:33;;;;;;;1.77;0.93;;;24.00;66.50;;;;;;6235930;28;20230;-46
2023/07/30 12:20:35;;;;;;;0.85;0.63;;;24.20;66.60;;;;;;6267898;28;20041;-43
2023/07/30 12:23:37;;;;;;;1.42;0.75;;;24.30;66.50;;;;;;6268557;28;20044;-42
2023/07/30 12:26:38;;;;;;;2.17;0.85;;;24.30;66.40;;;;;;6268724;28;20388;-45
2023/07/30 12:29:44;;;;;;;1.25;0.70;;;24.40;66.40;;;;;;6268799;28;20044;-44
2023/07/30 12:32:46;;;;;;;1.13;0.90;;;24.30;66.30;;;;;;6267020;28;20036;-47
2023/07/30 12:35:50;;;;;;;0.98;0.65;;;24.40;66.30;;;;;;6269499;28;20033;-43
2023/07/30 12:38:56;;;;;;;1.25;0.90;;;24.40;66.10;;;;;;6269988;28;20042;-44
2023/07/30 12:41:57;;;;;;;1.50;0.80;;;24.50;66.00;;;;;;6269377;28;20407;-44
2023/07/30 12:45:02;;;;;;;1.33;0.75;;;24.50;66.10;;;;;;6264985;28;20037;-44
2023/07/30 12:48:04;;;;;;;1.17;0.68;;;24.50;66.50;;;;;;6267900;28;20036;-46
2023/07/30 12:51:12;;;;;;;1.95;1.05;;;24.40;66.30;;;;;;6266980;28;20040;-43
2023/07/30 12:54:16;;;;;;;0.80;0.60;;;24.40;66.10;;;;;;6266236;28;20040;-43
2023/07/30 12:57:18;;;;;;;0.80;0.52;;;24.30;65.80;;;;;;6263448;28;20086;-44
2023/07/30 13:00:20;;;;;;;1.23;0.90;;;24.40;65.60;;;;;;6248351;28;20117;-45
2023/07/30 13:03:25;;;;;;;0.63;0.47;;;24.50;65.80;;;;;;6264966;28;20542;-42
2023/07/30 13:06:26;;;;;;;0.90;0.73;;;24.50;65.60;;;;;;6266226;28;20127;-45
2023/07/30 13:09:30;;;;;;;1.27;0.80;;;24.50;66.10;;;;;;6264569;28;20313;-45
2023/07/30 13:12:32;;;;;;;0.93;0.68;;;24.50;66.00;;;;;;6264615;28;20535;-43
2023/07/30 13:15:35;;;;;;;0.70;0.60;;;24.60;65.80;;;;;;6265393;28;20064;-45
2023/07/30 13:18:37;;;;;;;1.20;0.80;;;24.60;65.60;;;;;;6263465;28;20062;-45
2023/07/30 13:21:40;;;;;;;1.83;0.88;;;24.60;65.90;;;;;;6265811;28;20462;-44
2023/07/30 13:24:42;;;;;;;0.82;0.52;;;24.30;65.40;;;;;;6264101;28;20090;-43
2023/07/30 13:27:44;;;;;;;0.93;0.60;;;24.60;65.80;;;;;;6263548;28;20646;-44
2023/07/30 13:30:45;;;;;;;0.68;0.50;;;24.60;65.70;;;;;;6264281;28;20067;-43
2023/07/30 13:33:51;;;;;;;0.73;0.50;;;24.50;65.70;;;;;;6264296;28;20414;-44
2023/07/30 13:36:52;;;;;;;0.82;0.50;;;24.50;65.60;;;;;;6265797;28;20086;-42
2023/07/30 13:39:54;;;;;;;0.95;0.75;;;24.20;65.40;;;;;;6263630;28;20036;-45
2023/07/30 13:42:57;;;;;;;1.02;0.57;;;24.60;65.60;;;;;;6263971;28;20055;-45
2023/07/30 13:45:59;;;;;;;1.10;0.80;;;24.60;65.60;;;;;;6265299;28;20036;-47
2023/07/30 13:49:01;;;;;;;0.93;0.73;;;24.70;65.40;;;;;;6266157;28;20267;-44
2023/07/30 13:52:02;;;;;;;1.23;0.80;;;24.70;65.40;;;;;;6264095;28;20037;-44
2023/07/30 13:55:05;;;;;;;0.77;0.50;;;24.60;65.10;;;;;;6263756;28;20056;-47
2023/07/30 13:58:06;;;;;;;0.70;0.50;;;24.60;65.20;;;;;;6261593;28;20119;-43
2023/07/30 14:01:09;;;;;;;0.65;0.60;;;24.60;65.20;;;;;;6263827;28;20530;-42
2023/07/30 14:04:11;;;;;;;0.80;0.60;;;24.70;65.10;;;;;;6265226;28;20458;-44
2023/07/30 14:07:12;;;;;;;0.90;0.50;;;24.30;65.20;;;;;;6263253;28;20040;-45
2023/07/30 14:10:14;;;;;;;0.85;0.50;;;24.30;64.80;;;;;;6261280;28;20040;-45
2023/07/30 14:13:18;;;;;;;0.60;0.50;;;24.80;65.00;;;;;;6263755;28;20229;-44
2023/07/30 14:16:19;;;;;;;0.70;0.50;;;24.80;64.90;;;;;;6263378;28;20037;-43
2023/07/30 14:19:23;;;;;;;0.85;0.50;;;24.80;65.30;;;;;;6264069;28;20525;-42
2023/07/30 14:22:24;;;;;;;0.63;0.50;;;24.30;64.30;;;;;;6264032;28;20040;-46
2023/07/30 14:25:26;;;;;;;0.43;0.30;;;24.80;65.00;;;;;;6264309;28;20245;-44
2023/07/30 14:28:27;;;;;;;0.52;0.40;;;24.30;64.50;;;;;;6263676;28;20044;-45
2023/07/30 14:31:29;;;;;;;1.33;0.63;;;24.70;64.20;;;;;;6262983;28;20158;-45
2023/07/30 14:34:31;;;;;;;1.05;0.77;;;24.70;64.30;;;;;;6264037;28;20067;-45
2023/07/30 14:37:32;;;;;;;0.82;0.47;;;24.40;64.00;;;;;;6263492;28;20039;-46
2023/07/30 14:40:37;;;;;;;1.35;0.70;;;24.80;64.00;;;;;;6263296;28;20082;-44
2023/07/30 14:43:38;;;;;;;0.57;0.40;;;24.90;64.10;;;;;;6265914;28;20533;-43
2023/07/30 14:46:40;;;;;;;1.08;0.70;;;25.20;64.30;;;;;;6263594;28;20040;-45
2023/07/30 14:49:43;;;;;;;0.77;0.50;;;24.90;63.70;;;;;;6262964;28;20048;-44
2023/07/30 14:52:44;;;;;;;0.73;0.57;;;24.90;63.90;;;;;;6264388;28;20074;-44
2023/07/30 14:55:46;;;;;;;1.05;0.65;;;24.80;64.40;;;;;;6262403;28;20388;-44
2023/07/30 14:58:47;;;;;;;0.93;0.60;;;24.90;64.10;;;;;;6264784;28;20238;-42
2023/07/30 15:01:49;;;;;;;1.20;0.55;;;24.90;63.90;;;;;;6265771;28;20056;-47
2023/07/30 15:04:51;;;;;;;0.60;0.60;;;24.50;63.60;;;;;;6265650;28;20782;-44
2023/07/30 15:07:52;;;;;;;0.90;0.77;;;25.00;63.60;;;;;;6262035;28;20047;-45
2023/07/30 15:10:54;;;;;;;0.88;0.60;;;24.70;63.70;;;;;;6261419;28;20028;-43
2023/07/30 15:13:55;;;;;;;1.48;0.70;;;25.00;63.80;;;;;;6261378;28;20056;-44
2023/07/30 15:16:57;;;;;;;0.90;0.50;;;25.00;63.80;;;;;;6261957;28;20044;-45
2023/07/30 15:19:59;;;;;;;1.42;0.70;;;24.90;64.00;;;;;;6265677;28;20261;-45
2023/07/30 15:23:01;;;;;;;0.70;0.50;;;24.90;64.00;;;;;;6261604;28;20043;-44
2023/07/30 15:26:03;;;;;;;0.85;0.60;;;25.00;63.40;;;;;;6263892;28;20036;-45
2023/07/30 15:29:04;;;;;;;0.98;0.60;;;25.00;63.50;;;;;;6269321;28;20483;-44
2023/07/30 15:32:06;;;;;;;0.77;0.47;;;24.70;63.60;;;;;;6268316;28;20036;-46
2023/07/30 15:35:11;;;;;;;0.82;0.50;;;25.10;63.90;;;;;;6267076;28;20041;-43
2023/07/30 15:38:13;;;;;;;0.70;0.50;;;24.50;63.90;;;;;;6267791;28;20506;-44
2023/07/30 15:41:14;;;;;;;0.80;0.52;;;24.70;63.60;;;;;;6267247;28;20041;-45
2023/07/30 15:44:16;;;;;;;0.80;0.60;;;25.10;63.20;;;;;;6266614;28;20037;-47
2023/07/30 15:47:20;;;;;;;1.38;0.80;;;25.20;63.40;;;;;;6267944;28;20349;-43
2023/07/30 15:50:23;;;;;;;1.10;0.80;;;25.20;60.00;;;;;;6267093;28;20491;-46
2023/07/30 15:53:25;;;;;;;1.35;0.73;;;25.10;63.00;;;;;;6267387;28;20048;-46